Latest Weather Observations for Walungurru (Kintore)

IDD60801

Issued at 4:51 am CST Sunday 21 October 2018 (issued every 10 minutes, with the page automatically refreshed every 10 minutes)

About weather observations | Map of weather stations | Latest weather observations for NT | Other Formats
Station Details ID: 015664 Name: WALUNGURRU AIRPORT Lat: -23.27 Lon: 129.38 Height: 454.3 m
Data from the previous 72 hours. | See also: Recent months at Walungurru (Kintore)
Date/Time
CST
Temp
°C
App
Temp
°C
Dew
Point
°C
Rel
Hum
%
Delta-T
°C
Wind Press
QNH
hPa
Press
MSL
hPa
Rain since
9am
mm
Dir  Spd
km/h
Gust
km/h
Spd
kts
Gust
kts
21/04:30am 23.8 16.3 1.4 23 10.7 E 30 46 16 25 1014.4 - 0.0
21/04:00am 23.9 17.2 1.5 23 10.8 E 26 35 14 19 1014.3 - 0.0
21/03:30am 24.2 16.7 1.2 22 11.0 E 30 39 16 21 1014.3 - 0.0
21/03:00am 25.7 18.2 1.1 20 11.9 E 30 43 16 23 1014.2 1011.9 0.0
21/02:30am 25.9 18.3 0.5 19 12.1 E 30 39 16 21 1014.4 - 0.0
21/02:00am 26.4 20.8 0.9 19 12.3 E 20 33 11 18 1014.7 - 0.0
21/01:30am 26.1 18.9 0.7 19 12.2 ESE 28 37 15 20 1014.8 - 0.0
21/01:00am 26.4 20.4 0.9 19 12.3 ESE 22 35 12 19 1015.3 - 0.0
21/12:30am 26.8 20.0 0.5 18 12.7 ESE 26 35 14 19 1015.5 - 0.0
21/12:00am 26.9 21.2 0.6 18 12.7 ESE 20 30 11 16 1015.7 1013.5 0.0
 
Date/Time
CST
Temp
°C
App
Temp
°C
Dew
Point
°C
Rel
Hum
%
Delta-T
°C
Wind Press
QNH
hPa
Press
MSL
hPa
Rain since
9am
mm
Dir  Spd
km/h
Gust
km/h
Spd
kts
Gust
kts
20/11:30pm 26.7 20.6 0.4 18 12.6 SE 22 30 12 16 1016.1 - 0.0
20/11:00pm 27.4 20.5 0.2 17 13.1 SE 26 35 14 19 1016.2 - 0.0
20/10:30pm 27.8 21.6 -0.3 16 13.4 SSE 22 35 12 19 1016.3 - 0.0
20/10:00pm 28.0 21.6 0.7 17 13.3 SSE 24 35 13 19 1016.1 - 0.0
20/09:30pm 28.0 23.0 1.5 18 13.1 SSE 17 28 9 15 1016.0 - 0.0
20/09:00pm 27.9 23.0 -0.2 16 13.5 S 15 17 8 9 1015.8 1013.6 0.0
20/08:30pm 28.0 23.8 -1.0 15 13.7 S 11 11 6 6 1015.4 - 0.0
20/08:00pm 28.7 24.4 -1.4 14 14.2 SSE 11 13 6 7 1015.0 - 0.0
20/07:30pm 30.4 26.0 -2.2 12 15.4 SSE 11 11 6 6 1014.6 - 0.0
20/07:00pm 31.9 27.5 -2.2 11 16.2 SE 11 15 6 8 1014.0 - 0.0
20/06:30pm 33.4 29.0 -2.3 10 17.2 SE 11 17 6 9 1013.6 - 0.0
20/06:00pm 34.1 29.6 -3.2 9 17.7 ESE 11 17 6 9 1013.3 1011.1 0.0
20/05:30pm 34.1 29.2 -3.2 9 17.7 ESE 13 20 7 11 1013.3 - 0.0
20/05:00pm 34.3 30.0 -1.7 10 17.6 SSE 11 19 6 10 1013.0 - 0.0
20/04:30pm 34.5 30.0 -2.9 9 17.9 SSE 11 19 6 10 1013.1 - 0.0
20/04:00pm 34.0 28.1 -1.9 10 17.4 ESE 19 24 10 13 1013.2 - 0.0
20/03:30pm 34.5 29.5 -1.5 10 17.7 S 15 28 8 15 1013.5 - 0.0
20/03:00pm 34.0 28.9 -1.9 10 17.4 E 15 24 8 13 1013.9 1011.7 0.0
20/02:30pm 33.9 29.2 -2.0 10 17.4 SE 13 24 7 13 1014.3 - 0.0
20/02:00pm 33.5 27.8 -1.0 11 16.9 SE 19 32 10 17 1014.8 - 0.0
20/01:30pm 32.5 27.4 -1.7 11 16.5 ESE 15 24 8 13 1015.3 - 0.0
20/01:00pm 32.5 26.8 -0.5 12 16.2 SE 19 28 10 15 1015.8 - 0.0
20/12:30pm 32.2 26.5 -0.8 12 16.1 SSE 19 30 10 16 1016.5 - 0.0
20/12:00pm 31.5 26.8 0.8 14 15.3 SE 15 26 8 14 1017.1 1014.8 0.0
20/11:30am 30.7 24.8 2.0 16 14.6 SE 22 30 12 16 1017.5 - 0.0
20/11:00am 29.5 23.4 2.7 18 13.7 ESE 24 30 13 16 1017.8 - 0.0
20/10:30am 28.8 22.8 3.6 20 13.0 ESE 24 35 13 19 1018.3 - 0.0
20/10:00am 27.9 21.2 3.6 21 12.4 ESE 28 37 15 20 1018.5 - 0.0
20/09:30am 26.6 20.7 3.8 23 11.6 SE 24 35 13 19 1018.4 - 0.0
20/09:00am 25.6 18.6 4.1 25 10.9 ESE 30 43 16 23 1018.2 1016.0 0.0
20/08:31am 24.2 17.6 4.0 27 10.2 SE 28 46 15 25 1017.8 - 0.0
20/08:30am 24.3 17.7 4.1 27 10.2 SE 28 43 15 23 1017.7 - 0.0
20/08:06am 23.4 15.9 4.4 29 9.6 SE 33 52 18 28 1017.4 - 0.0
20/08:00am 23.1 15.2 4.6 30 9.4 SE 35 52 19 28 1017.4 - 0.0
20/07:30am 22.0 13.4 4.6 32 8.7 SE 39 57 21 31 1016.9 - 0.0
20/07:15am 21.6 14.3 4.7 33 8.5 SE 32 50 17 27 1016.8 - 0.0
20/07:00am 21.4 14.2 4.9 34 8.3 SE 32 48 17 26 1016.7 - 0.0
20/06:30am 20.5 14.1 5.3 37 7.7 SSE 28 35 15 19 1016.1 - 0.0
20/06:00am 21.3 13.9 5.2 35 8.1 SSE 33 50 18 27 1015.5 1013.3 0.0
20/05:30am 21.9 15.9 5.3 34 8.4 SSE 26 35 14 19 1015.2 - 0.0
20/05:00am 21.9 16.3 5.3 34 8.4 SSE 24 33 13 18 1014.8 - 0.0
20/04:30am 22.4 15.9 4.9 32 8.9 SSE 28 37 15 20 1014.5 - 0.0
20/04:00am 23.3 17.7 5.2 31 9.3 SSE 24 39 13 21 1014.3 - 0.0
20/03:30am 23.2 17.5 5.1 31 9.2 SSE 24 35 13 19 1014.2 - 0.0
20/03:00am 23.8 17.4 5.2 30 9.6 SE 28 35 15 19 1013.9 1011.7 0.0
20/02:30am 24.1 17.8 5.5 30 9.6 SSE 28 32 15 17 1014.2 - 0.0
20/02:00am 24.7 19.4 5.0 28 10.1 SSE 22 30 12 16 1014.5 - 0.0
20/01:30am 25.0 19.6 4.7 27 10.4 SSE 22 30 12 16 1014.8 - 0.0
20/01:00am 25.1 19.8 4.8 27 10.4 S 22 28 12 15 1015.0 - 0.0
20/12:30am 25.9 19.7 4.4 25 11.0 S 26 32 14 17 1015.1 - 0.0
20/12:00am 26.7 20.8 3.9 23 11.6 S 24 32 13 17 1015.3 1013.1 0.0
 
Date/Time
CST
Temp
°C
App
Temp
°C
Dew
Point
°C
Rel
Hum
%
Delta-T
°C
Wind Press
QNH
hPa
Press
MSL
hPa
Rain since
9am
mm
Dir  Spd
km/h
Gust
km/h
Spd
kts
Gust
kts
19/11:30pm 27.3 22.3 3.7 22 12.1 S 19 24 10 13 1015.4 - 0.0
19/11:00pm 28.5 23.5 3.4 20 12.9 S 19 28 10 15 1015.3 - 0.0
19/10:30pm 29.2 24.0 2.5 18 13.5 S 19 28 10 15 1015.2 - 0.0
19/10:00pm 29.3 24.9 2.5 18 13.6 S 15 35 8 19 1015.1 - 0.0
19/09:30pm 31.0 23.9 1.4 15 14.9 SSW 28 39 15 21 1014.5 - 0.0
19/09:00pm 31.7 23.8 1.0 14 15.4 S 32 44 17 24 1014.0 1011.8 0.0
19/08:40pm 32.2 25.1 1.3 14 15.6 S 28 46 15 25 1013.6 - 0.0
19/08:30pm 32.2 24.6 0.3 13 15.9 S 30 44 16 24 1013.6 - 0.0
19/08:14pm 32.8 25.5 -0.3 12 16.4 SSW 28 44 15 24 1013.3 - 0.0
19/08:00pm 32.3 26.4 -1.9 11 16.4 SW 19 24 10 13 1013.0 - 0.0
19/07:30pm 32.0 27.3 -2.1 11 16.3 SW 13 17 7 9 1012.4 - 0.0
19/07:00pm 33.7 28.6 -2.1 10 17.3 SW 15 20 8 11 1012.0 - 0.0
19/06:30pm 34.8 27.9 -2.7 9 18.1 SW 24 32 13 17 1011.4 - 0.0
19/06:00pm 36.1 28.7 -3.3 8 19.0 WSW 26 35 14 19 1010.9 1008.6 0.0
19/05:30pm 37.0 29.7 -2.7 8 19.4 W 26 35 14 19 1010.6 - 0.0
19/05:00pm 36.8 29.9 -2.8 8 19.3 SW 24 39 13 21 1010.3 - 0.0
19/04:30pm 37.5 29.5 -2.3 8 19.6 WNW 30 43 16 23 1010.2 - 0.0
19/04:05pm 38.0 30.4 -1.9 8 19.9 W 28 48 15 26 1010.1 - 0.0
19/04:00pm 38.0 30.1 -1.9 8 19.9 WSW 30 46 16 25 1010.2 - 0.0
19/03:40pm 38.2 30.6 -1.8 8 20.0 WNW 28 46 15 25 1010.2 - 0.0
19/03:30pm 38.0 30.4 -1.9 8 19.9 W 28 44 15 24 1010.3 - 0.0
19/03:00pm 38.0 30.8 -1.9 8 19.9 WSW 26 41 14 22 1010.5 1008.2 0.0
19/02:30pm 37.4 31.9 -2.4 8 19.6 W 17 28 9 15 1010.8 - 0.0
19/02:00pm 37.6 31.0 -0.6 9 19.4 SW 24 33 13 18 1011.2 - 0.0
19/01:50pm 38.0 30.7 -0.3 9 19.6 WSW 28 46 15 25 1011.3 - 0.0
19/01:30pm 37.3 30.6 -0.9 9 19.2 WSW 24 43 13 23 1011.6 - 0.0
19/01:00pm 36.6 30.5 0.1 10 18.6 WSW 22 35 12 19 1012.0 - 0.0
19/12:30pm 36.2 30.6 -0.2 10 18.4 WSW 19 32 10 17 1012.3 - 0.0
19/12:00pm 35.0 30.0 1.4 12 17.3 W 17 24 9 13 1012.7 1010.4 0.0
19/11:30am 34.4 30.1 3.1 14 16.5 W 15 20 8 11 1012.9 - 0.0
19/11:00am 33.5 29.9 6.7 19 14.9 WSW 15 26 8 14 1013.1 - 0.0
19/10:30am 33.1 28.7 6.4 19 14.7 W 19 26 10 14 1013.3 - 0.0
19/10:00am 32.2 28.6 9.7 25 13.0 WNW 19 24 10 13 1013.5 - 0.0
19/09:30am 31.4 26.5 8.4 24 13.0 WNW 24 33 13 18 1013.5 - 0.0
19/09:00am 30.2 26.5 15.1 40 9.4 NW 28 35 15 19 1013.3 1011.1 0.6
19/08:30am 29.3 26.8 17.2 48 7.8 NNW 26 35 14 19 1013.0 - 0.6
19/08:00am 27.7 27.7 17.2 52 6.7 N 13 20 7 11 1013.1 - 0.6
19/07:30am 25.7 26.0 17.1 59 5.4 NE 11 15 6 8 1012.8 - 0.6
19/07:00am 24.6 25.0 17.3 64 4.6 NE 11 15 6 8 1012.7 - 0.6
19/06:30am 23.9 24.3 17.2 66 4.2 NE 11 13 6 7 1012.4 - 0.6
19/06:00am 24.2 24.2 17.2 65 4.4 NE 13 17 7 9 1012.1 1009.8 0.6
19/05:30am 24.4 24.4 17.1 63 4.6 NE 13 17 7 9 1011.5 - 0.6
19/05:00am 25.0 25.0 17.2 62 4.9 NNE 13 15 7 8 1011.3 - 0.6
19/04:30am 24.8 25.6 17.3 63 4.7 NE 9 13 5 7 1011.2 - 0.6
19/04:00am 24.8 25.7 17.5 64 4.6 NE 9 11 5 6 1011.1 - 0.6
19/03:30am 25.0 25.8 17.2 62 4.9 NE 9 11 5 6 1011.0 - 0.6
19/03:00am 25.2 26.2 17.7 63 4.8 NE 9 11 5 6 1011.0 1008.7 0.6
19/02:30am 26.1 26.7 17.7 60 5.4 NNE 11 17 6 9 1011.1 - 0.6
19/02:00am 25.5 26.5 17.7 62 5.0 NE 9 9 5 5 1011.2 - 0.6
19/01:30am 26.3 26.4 17.4 58 5.7 NNE 13 15 7 8 1011.2 - 0.6
19/01:00am 27.7 27.2 16.9 51 6.9 NNE 15 20 8 11 1011.3 - 0.6
19/12:30am 28.3 28.3 17.2 51 7.1 N 13 20 7 11 1011.6 - 0.6
19/12:00am 26.5 25.9 18.4 61 5.2 SW 19 24 10 13 1012.5 1010.2 0.6
 
Date/Time
CST
Temp
°C
App
Temp
°C
Dew
Point
°C
Rel
Hum
%
Delta-T
°C
Wind Press
QNH
hPa
Press
MSL
hPa
Rain since
9am
mm
Dir  Spd
km/h
Gust
km/h
Spd
kts
Gust
kts
18/11:30pm 26.8 25.6 18.4 60 5.4 N 22 32 12 17 1011.6 - 0.6
18/11:00pm 27.3 27.7 19.1 61 5.4 E 15 20 8 11 1011.9 - 0.6
18/10:42pm 24.5 23.2 17.2 63 4.6 S 20 24 11 13 1012.2 - 0.6
18/10:30pm 29.5 28.5 13.3 37 9.8 ENE 11 15 6 8 1012.0 - 0.0
18/10:00pm 29.8 28.3 13.1 36 10.1 NE 13 17 7 9 1011.7 - 0.0
18/09:30pm 30.0 28.2 11.0 31 11.1 NNE 11 13 6 7 1011.6 - 0.0
18/09:00pm 30.3 28.1 12.2 33 10.8 N 15 20 8 11 1011.4 1009.2 0.0
18/08:30pm 30.0 26.9 14.5 38 9.6 N 24 33 13 18 1011.2 - 0.0
18/08:00pm 31.1 27.1 12.9 32 11.0 NNW 26 37 14 20 1010.9 - 0.0
18/07:30pm 33.9 29.9 10.5 24 13.8 NNW 22 30 12 16 1010.4 - 0.0
18/07:00pm 34.2 30.6 10.7 24 13.9 N 20 32 11 17 1010.0 - 0.0
18/06:30pm 34.5 30.1 10.4 23 14.3 N 24 32 13 17 1009.7 - 0.0
18/06:00pm 35.2 30.4 10.3 22 14.8 N 26 33 14 18 1009.5 1007.2 0.0
18/05:30pm 35.4 30.4 9.7 21 15.1 N 26 33 14 18 1009.5 - 0.0
18/05:00pm 36.1 31.3 10.3 21 15.3 N 26 35 14 19 1009.2 - 0.0
18/04:30pm 35.6 29.5 9.9 21 15.2 N 32 43 17 23 1009.3 - 0.0
18/04:00pm 35.8 28.8 10.1 21 15.2 N 37 52 20 28 1009.6 - 0.0
18/03:41pm 36.0 29.8 10.2 21 15.3 NNW 33 52 18 28 1009.6 - 0.0
18/03:30pm 36.1 30.9 10.3 21 15.3 NNW 28 43 15 23 1009.8 - 0.0
18/03:00pm 36.0 29.6 9.5 20 15.6 N 33 44 18 24 1010.0 1007.7 0.0
18/02:45pm 36.2 30.3 10.4 21 15.4 N 32 50 17 27 1010.2 - 0.0
18/02:30pm 36.7 30.7 10.1 20 15.8 N 32 43 17 23 1010.6 - 0.0
18/02:06pm 36.3 30.2 8.2 18 16.2 NNW 30 48 16 26 1011.0 - 0.0
18/02:00pm 36.2 29.7 8.1 18 16.2 N 32 48 17 26 1011.2 - 0.0
18/01:56pm 35.8 29.8 8.6 19 15.7 N 30 48 16 26 1011.2 - 0.0
18/01:30pm 36.4 29.7 8.3 18 16.2 N 33 46 18 25 1011.7 - 0.0
18/01:18pm 36.1 29.6 8.0 18 16.1 N 32 50 17 27 1012.0 - 0.0
18/01:00pm 35.5 28.5 6.7 17 16.2 N 33 50 18 27 1012.4 - 0.0
18/12:30pm 33.6 25.8 6.8 19 14.9 N 37 50 20 27 1013.1 - 0.0
18/12:00pm 33.5 26.5 6.7 19 14.9 N 33 50 18 27 1013.6 1011.4 0.0
18/11:30am 32.9 25.6 7.0 20 14.4 N 35 48 19 26 1013.8 - 0.0
18/11:00am 31.8 23.7 5.3 19 14.3 NNE 37 48 20 26 1014.3 - 0.0
18/10:39am 31.4 23.6 5.0 19 14.1 NNE 35 54 19 29 1014.5 - 0.0
18/10:30am 30.9 22.5 3.8 18 14.2 NNE 37 50 20 27 1014.6 - 0.0
18/10:00am 30.3 22.4 2.5 17 14.2 NNE 33 46 18 25 1015.0 - 0.0
18/09:30am 28.8 20.5 -0.4 15 14.0 NNE 33 43 18 23 1015.1 - 0.0
18/09:00am 27.6 19.4 -1.3 15 13.5 NE 32 43 17 23 1015.1 1012.8 0.0
18/08:30am 26.6 18.7 -1.3 16 13.0 NNE 30 41 16 22 1015.2 - 0.0
18/08:00am 25.3 18.9 -1.5 17 12.3 NE 22 30 12 16 1015.0 - 0.0
18/07:30am 23.9 18.2 -1.1 19 11.4 NE 19 28 10 15 1014.8 - 0.0
18/07:00am 22.9 17.5 -1.2 20 10.9 NE 17 22 9 12 1014.6 - 0.0
18/06:30am 22.7 16.9 -1.4 20 10.9 ENE 19 22 10 12 1013.7 - 0.0
18/06:00am 22.9 16.6 -1.2 20 10.9 ENE 22 30 12 16 1013.0 1010.7 0.0
18/05:30am 23.4 17.0 -1.5 19 11.3 ENE 22 30 12 16 1012.8 - 0.0
18/05:00am 23.8 17.1 -1.2 19 11.4 ENE 24 32 13 17 1012.4 - 0.0

Other Formats:

Comma delimited format used in spreadsheet applications
http://www.bom.gov.au/fwo/IDD60801/IDD60801.94321.axf

JavaScript Object Notation format (JSON) in row-major order
http://www.bom.gov.au/fwo/IDD60801/IDD60801.94321.json